sensor_id;sensor_type;location;lat;lon;timestamp;pressure;altitude;pressure_sealevel;temperature;humidity
6032;BME280;3044;43.232;27.972;2022-09-11T00:00:43;45132.84;;;-143.84;94.11
6032;BME280;3044;43.232;27.972;2022-09-11T00:03:10;45106.19;;;-143.84;93.99
6032;BME280;3044;43.232;27.972;2022-09-11T00:05:38;45115.72;;;-143.84;93.68
6032;BME280;3044;43.232;27.972;2022-09-11T00:08:06;45106.19;;;-143.84;93.45
6032;BME280;3044;43.232;27.972;2022-09-11T00:10:35;45113.81;;;-143.84;92.89
6032;BME280;3044;43.232;27.972;2022-09-11T00:13:05;45110.00;;;-143.84;92.51
6032;BME280;3044;43.232;27.972;2022-09-11T00:15:36;45108.09;;;-143.84;92.74
6032;BME280;3044;43.232;27.972;2022-09-11T00:18:06;45108.09;;;-143.84;92.31
6032;BME280;3044;43.232;27.972;2022-09-11T00:20:34;45092.88;;;-143.84;92.19
6032;BME280;3044;43.232;27.972;2022-09-11T00:23:03;45117.63;;;-143.84;92.55
6032;BME280;3044;43.232;27.972;2022-09-11T00:25:32;45129.03;;;-143.84;92.64
6032;BME280;3044;43.232;27.972;2022-09-11T00:28:00;45113.81;;;-143.84;92.84
6032;BME280;3044;43.232;27.972;2022-09-11T00:30:28;45121.44;;;-143.84;92.89
6032;BME280;3044;43.232;27.972;2022-09-11T00:32:55;45111.91;;;-143.84;93.45
6032;BME280;3044;43.232;27.972;2022-09-11T00:35:24;45117.63;;;-143.84;93.60
6032;BME280;3044;43.232;27.972;2022-09-11T00:37:51;45119.53;;;-143.84;94.42
6032;BME280;3044;43.232;27.972;2022-09-11T00:40:18;45098.56;;;-143.84;94.57
6032;BME280;3044;43.232;27.972;2022-09-11T00:42:51;45129.03;;;-143.84;94.48
6032;BME280;3044;43.232;27.972;2022-09-11T00:45:21;45110.00;;;-143.84;94.91
6032;BME280;3044;43.232;27.972;2022-09-11T00:47:49;45129.03;;;-143.84;94.56
6032;BME280;3044;43.232;27.972;2022-09-11T00:50:20;45140.47;;;-143.84;94.73
6032;BME280;3044;43.232;27.972;2022-09-11T00:52:53;45115.72;;;-143.84;94.78
6032;BME280;3044;43.232;27.972;2022-09-11T00:55:22;45104.28;;;-143.84;94.64
6032;BME280;3044;43.232;27.972;2022-09-11T00:57:56;45096.66;;;-143.84;93.94
6032;BME280;3044;43.232;27.972;2022-09-11T01:00:24;45121.44;;;-143.84;93.83
6032;BME280;3044;43.232;27.972;2022-09-11T01:02:52;45121.44;;;-143.84;94.13
6032;BME280;3044;43.232;27.972;2022-09-11T01:05:22;45117.63;;;-143.84;94.56
6032;BME280;3044;43.232;27.972;2022-09-11T01:07:53;45106.19;;;-143.84;94.37
6032;BME280;3044;43.232;27.972;2022-09-11T01:10:27;45113.81;;;-143.84;94.29
6032;BME280;3044;43.232;27.972;2022-09-11T01:13:04;45115.72;;;-143.84;93.83
6032;BME280;3044;43.232;27.972;2022-09-11T01:15:40;45117.63;;;-143.84;93.37
6032;BME280;3044;43.232;27.972;2022-09-11T01:18:13;45113.81;;;-143.84;93.37
6032;BME280;3044;43.232;27.972;2022-09-11T01:20:59;45106.19;;;-143.84;93.77
6032;BME280;3044;43.232;27.972;2022-09-11T01:23:58;45098.56;;;-143.84;93.81
6032;BME280;3044;43.232;27.972;2022-09-11T01:26:37;45117.63;;;-143.84;94.27
6032;BME280;3044;43.232;27.972;2022-09-11T01:29:10;45102.38;;;-143.84;94.19
6032;BME280;3044;43.232;27.972;2022-09-11T01:31:43;45129.03;;;-143.84;94.17
6032;BME280;3044;43.232;27.972;2022-09-11T01:34:19;45130.94;;;-143.84;94.01
6032;BME280;3044;43.232;27.972;2022-09-11T01:36:52;45130.94;;;-143.84;93.97
6032;BME280;3044;43.232;27.972;2022-09-11T01:39:28;45106.19;;;-143.84;93.62
6032;BME280;3044;43.232;27.972;2022-09-11T01:42:01;45159.50;;;-143.84;94.06
6032;BME280;3044;43.232;27.972;2022-09-11T01:44:34;45111.91;;;-143.84;93.91
6032;BME280;3044;43.232;27.972;2022-09-11T01:47:03;45136.66;;;-143.84;93.22
6032;BME280;3044;43.232;27.972;2022-09-11T01:49:33;45127.13;;;-143.84;93.09
6032;BME280;3044;43.232;27.972;2022-09-11T01:52:06;45136.66;;;-143.84;93.69
6032;BME280;3044;43.232;27.972;2022-09-11T01:54:38;45100.47;;;-143.84;93.37
6032;BME280;3044;43.232;27.972;2022-09-11T01:57:11;45098.56;;;-143.84;93.42
6032;BME280;3044;43.232;27.972;2022-09-11T01:59:43;45125.22;;;-143.84;93.60
6032;BME280;3044;43.232;27.972;2022-09-11T02:02:17;45108.09;;;-143.84;93.58
6032;BME280;3044;43.232;27.972;2022-09-11T02:04:48;45110.00;;;-143.84;93.84
6032;BME280;3044;43.232;27.972;2022-09-11T02:07:20;45111.91;;;-143.84;94.01
6032;BME280;3044;43.232;27.972;2022-09-11T02:09:52;45115.72;;;-143.84;94.08
6032;BME280;3044;43.232;27.972;2022-09-11T02:12:24;45132.84;;;-143.84;93.78
6032;BME280;3044;43.232;27.972;2022-09-11T02:14:55;45092.88;;;-143.84;93.98
6032;BME280;3044;43.232;27.972;2022-09-11T02:17:27;45121.44;;;-143.84;93.59
6032;BME280;3044;43.232;27.972;2022-09-11T02:19:58;45144.28;;;-143.84;93.53
6032;BME280;3044;43.232;27.972;2022-09-11T02:22:26;45121.44;;;-143.84;93.57
6032;BME280;3044;43.232;27.972;2022-09-11T02:24:54;45106.19;;;-143.84;93.70
6032;BME280;3044;43.232;27.972;2022-09-11T02:27:23;45119.53;;;-143.84;93.81
6032;BME280;3044;43.232;27.972;2022-09-11T02:29:52;45106.19;;;-143.84;93.51
6032;BME280;3044;43.232;27.972;2022-09-11T02:32:22;45130.94;;;-143.84;93.59
6032;BME280;3044;43.232;27.972;2022-09-11T02:34:52;45113.81;;;-143.84;93.36
6032;BME280;3044;43.232;27.972;2022-09-11T02:37:29;45108.09;;;-143.84;93.45
6032;BME280;3044;43.232;27.972;2022-09-11T02:40:13;45110.00;;;-143.84;93.36
6032;BME280;3044;43.232;27.972;2022-09-11T02:42:55;45113.81;;;-143.84;93.16
6032;BME280;3044;43.232;27.972;2022-09-11T02:45:36;45115.72;;;-143.84;93.19
6032;BME280;3044;43.232;27.972;2022-09-11T02:48:31;45123.34;;;-143.84;92.63
6032;BME280;3044;43.232;27.972;2022-09-11T02:51:10;45123.34;;;-143.84;92.79
6032;BME280;3044;43.232;27.972;2022-09-11T02:53:47;45098.56;;;-143.84;92.17
6032;BME280;3044;43.232;27.972;2022-09-11T02:56:22;45123.34;;;-143.84;91.90
6032;BME280;3044;43.232;27.972;2022-09-11T02:58:55;45089.06;;;-143.84;91.94
6032;BME280;3044;43.232;27.972;2022-09-11T03:01:25;45117.63;;;-143.84;91.73
6032;BME280;3044;43.232;27.972;2022-09-11T03:03:54;45123.34;;;-143.84;92.12
6032;BME280;3044;43.232;27.972;2022-09-11T03:06:22;45115.72;;;-143.84;92.25
6032;BME280;3044;43.232;27.972;2022-09-11T03:08:49;45113.81;;;-143.84;91.86
6032;BME280;3044;43.232;27.972;2022-09-11T03:11:17;45094.78;;;-143.84;91.83
6032;BME280;3044;43.232;27.972;2022-09-11T03:13:44;45106.19;;;-143.84;91.81
6032;BME280;3044;43.232;27.972;2022-09-11T03:16:12;45102.38;;;-143.84;91.91
6032;BME280;3044;43.232;27.972;2022-09-11T03:18:39;45140.47;;;-143.84;92.08
6032;BME280;3044;43.232;27.972;2022-09-11T03:21:07;45079.53;;;-143.84;91.94
6032;BME280;3044;43.232;27.972;2022-09-11T03:23:35;45117.63;;;-143.84;91.42
6032;BME280;3044;43.232;27.972;2022-09-11T03:26:03;45115.72;;;-143.84;91.52
6032;BME280;3044;43.232;27.972;2022-09-11T03:28:30;45125.22;;;-143.84;91.37
6032;BME280;3044;43.232;27.972;2022-09-11T03:30:58;45104.28;;;-143.84;91.51
6032;BME280;3044;43.232;27.972;2022-09-11T03:33:25;45102.38;;;-143.84;91.37
6032;BME280;3044;43.232;27.972;2022-09-11T03:35:53;45108.09;;;-143.84;91.45
6032;BME280;3044;43.232;27.972;2022-09-11T03:38:22;45123.34;;;-143.84;91.45
6032;BME280;3044;43.232;27.972;2022-09-11T03:40:49;45098.56;;;-143.84;91.24
6032;BME280;3044;43.232;27.972;2022-09-11T03:43:16;45125.22;;;-143.84;91.10
6032;BME280;3044;43.232;27.972;2022-09-11T03:45:43;45121.44;;;-143.84;91.00
6032;BME280;3044;43.232;27.972;2022-09-11T03:48:14;45132.84;;;-143.84;91.17
6032;BME280;3044;43.232;27.972;2022-09-11T03:50:41;45130.94;;;-143.84;91.33
6032;BME280;3044;43.232;27.972;2022-09-11T03:53:09;45108.09;;;-143.84;91.15
6032;BME280;3044;43.232;27.972;2022-09-11T03:55:37;45094.78;;;-143.84;91.56
6032;BME280;3044;43.232;27.972;2022-09-11T03:58:05;45092.88;;;-143.84;91.78
6032;BME280;3044;43.232;27.972;2022-09-11T04:00:34;45132.84;;;-143.84;91.93
6032;BME280;3044;43.232;27.972;2022-09-11T04:03:01;45121.44;;;-143.84;92.23
6032;BME280;3044;43.232;27.972;2022-09-11T04:05:28;45136.66;;;-143.84;92.20
6032;BME280;3044;43.232;27.972;2022-09-11T04:07:56;45110.00;;;-143.84;92.37
6032;BME280;3044;43.232;27.972;2022-09-11T04:10:23;45136.66;;;-143.84;92.14
6032;BME280;3044;43.232;27.972;2022-09-11T04:12:52;45121.44;;;-143.84;92.14
6032;BME280;3044;43.232;27.972;2022-09-11T04:15:20;45113.81;;;-143.84;91.90
6032;BME280;3044;43.232;27.972;2022-09-11T04:17:47;45115.72;;;-143.84;91.61
6032;BME280;3044;43.232;27.972;2022-09-11T04:20:15;45132.84;;;-143.84;90.43
6032;BME280;3044;43.232;27.972;2022-09-11T04:22:42;45115.72;;;-143.84;89.67
6032;BME280;3044;43.232;27.972;2022-09-11T04:25:09;45117.63;;;-143.84;89.04
6032;BME280;3044;43.232;27.972;2022-09-11T04:27:37;45110.00;;;-143.84;88.31
6032;BME280;3044;43.232;27.972;2022-09-11T04:30:07;45119.53;;;-143.84;87.05
6032;BME280;3044;43.232;27.972;2022-09-11T04:32:34;45102.38;;;-143.84;86.63
6032;BME280;3044;43.232;27.972;2022-09-11T04:35:01;45096.66;;;-143.84;86.27
6032;BME280;3044;43.232;27.972;2022-09-11T04:37:28;45132.84;;;-143.84;86.08
6032;BME280;3044;43.232;27.972;2022-09-11T04:39:55;45121.44;;;-143.84;85.51
6032;BME280;3044;43.232;27.972;2022-09-11T04:42:23;45104.28;;;-143.84;85.82
6032;BME280;3044;43.232;27.972;2022-09-11T04:44:50;45098.56;;;-143.84;85.95
6032;BME280;3044;43.232;27.972;2022-09-11T04:47:19;45108.09;;;-143.84;84.02
6032;BME280;3044;43.232;27.972;2022-09-11T04:49:46;45087.16;;;-143.84;83.67
6032;BME280;3044;43.232;27.972;2022-09-11T04:52:14;45094.78;;;-143.84;82.50
6032;BME280;3044;43.232;27.972;2022-09-11T04:54:41;45100.47;;;-143.84;80.23
6032;BME280;3044;43.232;27.972;2022-09-11T04:57:10;45115.72;;;-143.84;79.71
6032;BME280;3044;43.232;27.972;2022-09-11T04:59:38;45075.72;;;-143.84;77.03
6032;BME280;3044;43.232;27.972;2022-09-11T05:02:06;45068.13;;;-143.84;75.38
6032;BME280;3044;43.232;27.972;2022-09-11T05:04:34;45087.16;;;-143.84;73.60
6032;BME280;3044;43.232;27.972;2022-09-11T05:07:01;45073.81;;;-143.84;72.22
6032;BME280;3044;43.232;27.972;2022-09-11T05:09:29;45085.25;;;-143.84;72.01
6032;BME280;3044;43.232;27.972;2022-09-11T05:11:56;45085.25;;;-143.84;71.68
6032;BME280;3044;43.232;27.972;2022-09-11T05:14:23;45096.66;;;-143.84;72.08
6032;BME280;3044;43.232;27.972;2022-09-11T05:16:50;45083.34;;;-143.84;70.66
6032;BME280;3044;43.232;27.972;2022-09-11T05:19:20;45071.91;;;-143.84;69.86
6032;BME280;3044;43.232;27.972;2022-09-11T05:21:49;45106.19;;;-143.84;70.16
6032;BME280;3044;43.232;27.972;2022-09-11T05:24:16;45083.34;;;-143.84;70.03
6032;BME280;3044;43.232;27.972;2022-09-11T05:26:43;45102.38;;;-143.84;69.25
6032;BME280;3044;43.232;27.972;2022-09-11T05:29:11;45068.13;;;-143.84;68.89
6032;BME280;3044;43.232;27.972;2022-09-11T05:31:39;45077.63;;;-143.84;68.60
6032;BME280;3044;43.232;27.972;2022-09-11T05:34:06;45064.31;;;-143.84;68.29
6032;BME280;3044;43.232;27.972;2022-09-11T05:36:34;45113.81;;;-143.84;68.74
6032;BME280;3044;43.232;27.972;2022-09-11T05:39:03;45079.53;;;-143.84;68.36
6032;BME280;3044;43.232;27.972;2022-09-11T05:41:30;45071.91;;;-143.84;67.33
6032;BME280;3044;43.232;27.972;2022-09-11T05:43:57;45083.34;;;-143.84;67.16
6032;BME280;3044;43.232;27.972;2022-09-11T05:46:24;45106.19;;;-143.84;66.53
6032;BME280;3044;43.232;27.972;2022-09-11T05:48:52;45083.34;;;-143.84;65.71
6032;BME280;3044;43.232;27.972;2022-09-11T05:51:20;45073.81;;;-143.84;65.39
6032;BME280;3044;43.232;27.972;2022-09-11T05:53:47;45052.88;;;-143.84;64.90
6032;BME280;3044;43.232;27.972;2022-09-11T05:56:17;45079.53;;;-143.84;64.74
6032;BME280;3044;43.232;27.972;2022-09-11T05:58:46;45054.78;;;-143.84;63.12
6032;BME280;3044;43.232;27.972;2022-09-11T06:01:15;45052.88;;;-143.84;62.29
6032;BME280;3044;43.232;27.972;2022-09-11T06:03:43;45071.91;;;-143.84;63.37
6032;BME280;3044;43.232;27.972;2022-09-11T06:06:12;45043.34;;;-143.84;61.80
6032;BME280;3044;43.232;27.972;2022-09-11T06:08:40;45039.53;;;-143.84;61.39
6032;BME280;3044;43.232;27.972;2022-09-11T06:11:09;45035.75;;;-143.84;61.08
6032;BME280;3044;43.232;27.972;2022-09-11T06:13:40;45052.88;;;-143.84;59.68
6032;BME280;3044;43.232;27.972;2022-09-11T06:16:10;45054.78;;;-143.84;58.89
6032;BME280;3044;43.232;27.972;2022-09-11T06:18:37;45030.03;;;-143.84;57.59
6032;BME280;3044;43.232;27.972;2022-09-11T06:21:06;45049.06;;;-143.84;56.54
6032;BME280;3044;43.232;27.972;2022-09-11T06:23:34;45049.06;;;-143.84;57.50
6032;BME280;3044;43.232;27.972;2022-09-11T06:26:02;45026.22;;;-143.84;56.48
6032;BME280;3044;43.232;27.972;2022-09-11T06:28:30;45039.53;;;-143.84;56.62
6032;BME280;3044;43.232;27.972;2022-09-11T06:30:58;45041.44;;;-143.84;57.64
6032;BME280;3044;43.232;27.972;2022-09-11T06:33:30;45037.66;;;-143.84;58.68
6032;BME280;3044;43.232;27.972;2022-09-11T06:35:59;45068.13;;;-143.84;58.60
6032;BME280;3044;43.232;27.972;2022-09-11T06:38:27;45045.25;;;-143.84;58.52
6032;BME280;3044;43.232;27.972;2022-09-11T06:40:54;45033.84;;;-143.84;58.02
6032;BME280;3044;43.232;27.972;2022-09-11T06:43:21;45033.84;;;-143.84;55.57
6032;BME280;3044;43.232;27.972;2022-09-11T06:45:49;45030.03;;;-143.84;56.67
6032;BME280;3044;43.232;27.972;2022-09-11T06:48:18;45039.53;;;-143.84;55.01
6032;BME280;3044;43.232;27.972;2022-09-11T06:50:45;45014.78;;;-143.84;54.82
6032;BME280;3044;43.232;27.972;2022-09-11T06:53:12;45014.78;;;-143.84;54.25
6032;BME280;3044;43.232;27.972;2022-09-11T06:55:40;45018.59;;;-143.84;49.20
6032;BME280;3044;43.232;27.972;2022-09-11T06:58:07;45003.38;;;-143.84;48.36
6032;BME280;3044;43.232;27.972;2022-09-11T07:00:35;45018.59;;;-143.84;49.34
6032;BME280;3044;43.232;27.972;2022-09-11T07:03:03;45014.78;;;-143.84;49.31
6032;BME280;3044;43.232;27.972;2022-09-11T07:05:31;45014.78;;;-143.84;45.95
6032;BME280;3044;43.232;27.972;2022-09-11T07:07:58;44997.66;;;-143.84;45.95
6032;BME280;3044;43.232;27.972;2022-09-11T07:10:26;45012.88;;;-143.84;46.49
6032;BME280;3044;43.232;27.972;2022-09-11T07:12:53;45026.22;;;-143.84;46.95
6032;BME280;3044;43.232;27.972;2022-09-11T07:15:22;45022.41;;;-143.84;44.79
6032;BME280;3044;43.232;27.972;2022-09-11T07:17:49;44984.31;;;-143.84;45.35
6032;BME280;3044;43.232;27.972;2022-09-11T07:20:16;44988.13;;;-143.84;45.74
6032;BME280;3044;43.232;27.972;2022-09-11T07:22:46;45014.78;;;-143.84;45.30
6032;BME280;3044;43.232;27.972;2022-09-11T07:25:14;45009.09;;;-143.84;45.77
6032;BME280;3044;43.232;27.972;2022-09-11T07:27:42;44997.66;;;-143.84;46.68
6032;BME280;3044;43.232;27.972;2022-09-11T07:30:11;44995.75;;;-143.84;44.21
6032;BME280;3044;43.232;27.972;2022-09-11T07:32:38;45003.38;;;-143.84;43.25
6032;BME280;3044;43.232;27.972;2022-09-11T07:35:06;44986.22;;;-143.84;43.90
6032;BME280;3044;43.232;27.972;2022-09-11T07:37:33;45012.88;;;-143.84;43.89
6032;BME280;3044;43.232;27.972;2022-09-11T07:40:02;44995.75;;;-143.84;43.22
6032;BME280;3044;43.232;27.972;2022-09-11T07:42:29;45003.38;;;-143.84;43.02
6032;BME280;3044;43.232;27.972;2022-09-11T07:44:58;44993.84;;;-143.84;42.49
6032;BME280;3044;43.232;27.972;2022-09-11T07:47:25;45005.28;;;-143.84;42.73
6032;BME280;3044;43.232;27.972;2022-09-11T07:49:52;45030.03;;;-143.84;43.03
6032;BME280;3044;43.232;27.972;2022-09-11T07:52:20;45009.09;;;-143.84;43.01
6032;BME280;3044;43.232;27.972;2022-09-11T07:54:47;44978.63;;;-143.84;42.48
6032;BME280;3044;43.232;27.972;2022-09-11T07:57:17;44980.53;;;-143.84;41.71
6032;BME280;3044;43.232;27.972;2022-09-11T07:59:44;44978.63;;;-143.84;41.20
6032;BME280;3044;43.232;27.972;2022-09-11T08:02:12;44986.22;;;-143.84;40.72
6032;BME280;3044;43.232;27.972;2022-09-11T08:04:39;44963.38;;;-143.84;40.96
6032;BME280;3044;43.232;27.972;2022-09-11T08:07:06;44925.31;;;-143.84;40.78
6032;BME280;3044;43.232;27.972;2022-09-11T08:09:33;44963.38;;;-143.84;40.77
6032;BME280;3044;43.232;27.972;2022-09-11T08:12:01;44967.19;;;-143.84;40.88
6032;BME280;3044;43.232;27.972;2022-09-11T08:14:29;44953.88;;;-143.84;40.04
6032;BME280;3044;43.232;27.972;2022-09-11T08:16:57;44982.41;;;-143.84;39.95
6032;BME280;3044;43.232;27.972;2022-09-11T08:19:24;45003.38;;;-143.84;41.17
6032;BME280;3044;43.232;27.972;2022-09-11T08:21:51;44965.28;;;-143.84;42.22
6032;BME280;3044;43.232;27.972;2022-09-11T08:24:19;44959.56;;;-143.84;40.40
6032;BME280;3044;43.232;27.972;2022-09-11T08:26:46;44961.47;;;-143.84;40.09
6032;BME280;3044;43.232;27.972;2022-09-11T08:29:13;44919.59;;;-143.84;38.62
6032;BME280;3044;43.232;27.972;2022-09-11T08:31:42;44932.91;;;-143.84;38.55
6032;BME280;3044;43.232;27.972;2022-09-11T08:34:10;44948.16;;;-143.84;37.98
6032;BME280;3044;43.232;27.972;2022-09-11T08:36:37;44923.41;;;-143.84;38.16
6032;BME280;3044;43.232;27.972;2022-09-11T08:39:04;44915.78;;;-143.84;37.74
6032;BME280;3044;43.232;27.972;2022-09-11T08:41:37;44940.53;;;-143.84;38.10
6032;BME280;3044;43.232;27.972;2022-09-11T08:44:13;44925.31;;;-143.84;37.49
6032;BME280;3044;43.232;27.972;2022-09-11T08:46:46;44950.06;;;-143.84;36.93
6032;BME280;3044;43.232;27.972;2022-09-11T08:49:20;44929.09;;;-143.84;37.17
6032;BME280;3044;43.232;27.972;2022-09-11T08:51:50;44921.50;;;-143.84;37.64
6032;BME280;3044;43.232;27.972;2022-09-11T08:54:22;44942.44;;;-143.84;36.97
6032;BME280;3044;43.232;27.972;2022-09-11T08:57:02;44908.16;;;-143.84;36.42
6032;BME280;3044;43.232;27.972;2022-09-11T08:59:41;44944.34;;;-143.84;36.25
6032;BME280;3044;43.232;27.972;2022-09-11T09:02:22;44938.63;;;-143.84;36.33
6032;BME280;3044;43.232;27.972;2022-09-11T09:05:12;44923.41;;;-143.84;36.51
6032;BME280;3044;43.232;27.972;2022-09-11T09:07:55;44913.88;;;-143.84;36.48
6032;BME280;3044;43.232;27.972;2022-09-11T09:10:38;44940.53;;;-143.84;36.16
6032;BME280;3044;43.232;27.972;2022-09-11T09:13:25;44923.41;;;-143.84;35.93
6032;BME280;3044;43.232;27.972;2022-09-11T09:16:01;44908.16;;;-143.84;36.19
6032;BME280;3044;43.232;27.972;2022-09-11T09:18:37;44929.09;;;-143.84;36.47
6032;BME280;3044;43.232;27.972;2022-09-11T09:21:11;44908.16;;;-143.84;36.45
6032;BME280;3044;43.232;27.972;2022-09-11T09:23:41;44927.19;;;-143.84;37.80
6032;BME280;3044;43.232;27.972;2022-09-11T09:26:12;44917.69;;;-143.84;37.75
6032;BME280;3044;43.232;27.972;2022-09-11T09:28:44;44940.53;;;-143.84;36.93
6032;BME280;3044;43.232;27.972;2022-09-11T09:31:13;44919.59;;;-143.84;36.93
6032;BME280;3044;43.232;27.972;2022-09-11T09:33:48;44955.75;;;-143.84;37.37
6032;BME280;3044;43.232;27.972;2022-09-11T09:36:19;44942.44;;;-143.84;37.14
6032;BME280;3044;43.232;27.972;2022-09-11T09:38:47;44938.63;;;-143.84;36.42
6032;BME280;3044;43.232;27.972;2022-09-11T09:44:30;44940.53;;;-143.84;37.46
6032;BME280;3044;43.232;27.972;2022-09-11T09:47:07;44938.63;;;-143.84;37.20
6032;BME280;3044;43.232;27.972;2022-09-11T09:49:38;44927.19;;;-143.84;37.63
6032;BME280;3044;43.232;27.972;2022-09-11T09:52:14;44931.00;;;-143.84;37.70
6032;BME280;3044;43.232;27.972;2022-09-11T09:54:48;44959.56;;;-143.84;37.86
6032;BME280;3044;43.232;27.972;2022-09-11T09:57:17;44946.25;;;-143.84;36.55
6032;BME280;3044;43.232;27.972;2022-09-11T09:59:48;44932.91;;;-143.84;37.12
6032;BME280;3044;43.232;27.972;2022-09-11T10:02:36;44938.63;;;-143.84;36.10
6032;BME280;3044;43.232;27.972;2022-09-11T10:05:17;44913.88;;;-143.84;36.62
6032;BME280;3044;43.232;27.972;2022-09-11T10:07:46;44919.59;;;-143.84;35.73
6032;BME280;3044;43.232;27.972;2022-09-11T10:10:21;44925.31;;;-143.84;35.49
6032;BME280;3044;43.232;27.972;2022-09-11T10:12:49;44925.31;;;-143.84;35.20
6032;BME280;3044;43.232;27.972;2022-09-11T10:15:21;44911.97;;;-143.84;35.26
6032;BME280;3044;43.232;27.972;2022-09-11T10:17:50;44940.53;;;-143.84;35.86
6032;BME280;3044;43.232;27.972;2022-09-11T10:20:24;44925.31;;;-143.84;35.36
6032;BME280;3044;43.232;27.972;2022-09-11T10:23:23;44923.41;;;-143.84;34.91
6032;BME280;3044;43.232;27.972;2022-09-11T10:25:51;44898.66;;;-143.84;35.22
6032;BME280;3044;43.232;27.972;2022-09-11T10:28:23;44923.41;;;-143.84;35.31
6032;BME280;3044;43.232;27.972;2022-09-11T10:30:55;44915.78;;;-143.84;35.39
6032;BME280;3044;43.232;27.972;2022-09-11T10:33:26;44934.81;;;-143.84;34.83
6032;BME280;3044;43.232;27.972;2022-09-11T10:35:57;44913.88;;;-143.84;34.74
6032;BME280;3044;43.232;27.972;2022-09-11T10:38:29;44881.50;;;-143.84;34.21
6032;BME280;3044;43.232;27.972;2022-09-11T10:41:03;44910.06;;;-143.84;34.74
6032;BME280;3044;43.232;27.972;2022-09-11T10:43:37;44919.59;;;-143.84;34.25
6032;BME280;3044;43.232;27.972;2022-09-11T10:46:29;44910.06;;;-143.84;34.28
6032;BME280;3044;43.232;27.972;2022-09-11T10:48:59;44919.59;;;-143.84;33.92
6032;BME280;3044;43.232;27.972;2022-09-11T10:51:36;44908.16;;;-143.84;32.93
6032;BME280;3044;43.232;27.972;2022-09-11T10:54:12;44915.78;;;-143.84;32.50
6032;BME280;3044;43.232;27.972;2022-09-11T10:56:55;44904.34;;;-143.84;33.15
6032;BME280;3044;43.232;27.972;2022-09-11T10:59:33;44908.16;;;-143.84;32.56
6032;BME280;3044;43.232;27.972;2022-09-11T11:02:15;44913.88;;;-143.84;33.64
6032;BME280;3044;43.232;27.972;2022-09-11T11:04:44;44921.50;;;-143.84;32.98
6032;BME280;3044;43.232;27.972;2022-09-11T11:07:21;44900.53;;;-143.84;33.99
6032;BME280;3044;43.232;27.972;2022-09-11T11:10:02;44921.50;;;-143.84;33.20
6032;BME280;3044;43.232;27.972;2022-09-11T11:12:47;44885.31;;;-143.84;32.90
6032;BME280;3044;43.232;27.972;2022-09-11T11:15:29;44902.44;;;-143.84;32.52
6032;BME280;3044;43.232;27.972;2022-09-11T11:18:21;44910.06;;;-143.84;32.15
6032;BME280;3044;43.232;27.972;2022-09-11T11:20:56;44925.31;;;-143.84;31.77
6032;BME280;3044;43.232;27.972;2022-09-11T11:23:47;44932.91;;;-143.84;32.58
6032;BME280;3044;43.232;27.972;2022-09-11T11:26:31;44885.31;;;-143.84;33.29
6032;BME280;3044;43.232;27.972;2022-09-11T11:29:21;44911.97;;;-143.84;32.00
6032;BME280;3044;43.232;27.972;2022-09-11T11:32:05;44887.22;;;-143.84;31.12
6032;BME280;3044;43.232;27.972;2022-09-11T11:34:53;44887.22;;;-143.84;31.73
6032;BME280;3044;43.232;27.972;2022-09-11T11:37:29;44908.16;;;-143.84;31.29
6032;BME280;3044;43.232;27.972;2022-09-11T11:40:03;44877.69;;;-143.84;31.78
6032;BME280;3044;43.232;27.972;2022-09-11T11:42:36;44910.06;;;-143.84;31.88
6032;BME280;3044;43.232;27.972;2022-09-11T11:45:08;44927.19;;;-143.84;32.56
6032;BME280;3044;43.232;27.972;2022-09-11T11:47:39;44904.34;;;-143.84;31.32
6032;BME280;3044;43.232;27.972;2022-09-11T11:50:15;44915.78;;;-143.84;31.58
6032;BME280;3044;43.232;27.972;2022-09-11T11:52:52;44919.59;;;-143.84;31.57
6032;BME280;3044;43.232;27.972;2022-09-11T11:55:25;44932.91;;;-143.84;31.43
6032;BME280;3044;43.232;27.972;2022-09-11T11:57:57;44938.63;;;-143.84;31.59
6032;BME280;3044;43.232;27.972;2022-09-11T12:00:27;44948.16;;;-143.84;32.46
6032;BME280;3044;43.232;27.972;2022-09-11T12:03:00;44961.47;;;-143.84;33.07
6032;BME280;3044;43.232;27.972;2022-09-11T12:05:32;44936.72;;;-143.84;32.40
6032;BME280;3044;43.232;27.972;2022-09-11T12:08:01;44927.19;;;-143.84;32.61
6032;BME280;3044;43.232;27.972;2022-09-11T12:10:32;44919.59;;;-143.84;32.80
6032;BME280;3044;43.232;27.972;2022-09-11T12:13:05;44929.09;;;-143.84;33.06
6032;BME280;3044;43.232;27.972;2022-09-11T12:15:33;44948.16;;;-143.84;32.86
6032;BME280;3044;43.232;27.972;2022-09-11T12:18:03;44919.59;;;-143.84;33.48
6032;BME280;3044;43.232;27.972;2022-09-11T12:20:37;44946.25;;;-143.84;32.88
6032;BME280;3044;43.232;27.972;2022-09-11T12:26:15;44944.34;;;-143.84;31.86
6032;BME280;3044;43.232;27.972;2022-09-11T12:28:43;44887.22;;;-143.84;31.32
6032;BME280;3044;43.232;27.972;2022-09-11T12:31:11;44934.81;;;-143.84;32.22
6032;BME280;3044;43.232;27.972;2022-09-11T12:33:55;44915.78;;;-143.84;31.75
6032;BME280;3044;43.232;27.972;2022-09-11T12:36:36;44927.19;;;-143.84;31.58
6032;BME280;3044;43.232;27.972;2022-09-11T12:39:26;44950.06;;;-143.84;32.00
6032;BME280;3044;43.232;27.972;2022-09-11T12:44:58;44957.66;;;-143.84;32.73
6032;BME280;3044;43.232;27.972;2022-09-11T12:47:32;44940.53;;;-143.84;32.64
6032;BME280;3044;43.232;27.972;2022-09-11T12:50:11;44953.88;;;-143.84;32.35
6032;BME280;3044;43.232;27.972;2022-09-11T12:52:47;44942.44;;;-143.84;32.94
6032;BME280;3044;43.232;27.972;2022-09-11T12:55:30;44984.31;;;-143.84;33.04
6032;BME280;3044;43.232;27.972;2022-09-11T12:58:02;44972.91;;;-143.84;32.28
6032;BME280;3044;43.232;27.972;2022-09-11T13:00:38;44942.44;;;-143.84;32.92
6032;BME280;3044;43.232;27.972;2022-09-11T13:03:15;44961.47;;;-143.84;33.03
6032;BME280;3044;43.232;27.972;2022-09-11T13:05:51;44965.28;;;-143.84;33.09
6032;BME280;3044;43.232;27.972;2022-09-11T13:08:22;44927.19;;;-143.84;32.74
6032;BME280;3044;43.232;27.972;2022-09-11T13:10:50;44959.56;;;-143.84;32.60
6032;BME280;3044;43.232;27.972;2022-09-11T13:13:40;44942.44;;;-143.84;33.35
6032;BME280;3044;43.232;27.972;2022-09-11T13:16:22;44961.47;;;-143.84;33.48
6032;BME280;3044;43.232;27.972;2022-09-11T13:18:50;44978.63;;;-143.84;34.05
6032;BME280;3044;43.232;27.972;2022-09-11T13:21:19;44963.38;;;-143.84;33.48